Forside
METAR-TAF:

METAR-TAF

Lufthavne :

Sikeston, Missouri, USA

Breddekreds: 36-53-56N, længdekreds: 089-33-42W, højde: 96 m

Aktuelle vejr

Denne rapport blev lavet for 22 minutter siden, kl. 23:35 UTC
Vind 10 kt fra nord
Temperatur 0°C
Fugtighed 93%
Tryk 1026 hPa
Sigt: 4.0 km
Overskyet i en højde af 700 ft
let sne

METAR: KSIK 142335Z AUTO 36010KT 2 1/2SM -SN OVC007 00/M01 A3031 RMK AO2

Tid: 17:57 (23:57 UTC)


TAF: fraværende

Vejrobservationer og prognoser fra mere end 4000 lufthavne (METAR og TAF).

De gule og røde prikker repræsenterer de meteorologiske stationer.

Flyt musen over at se navnet på stationen.

Så klik over at se vejr observationer og prognoser.

At skifte det kort: Klik på de grønne knapper med et sort kors for at zoome ind; på den grønne knap med en bindestreg for at zoome ud; eller på de grønne pile for tilstødende kort.


METAR-TAF: